Time;durP1;ratioP1;P1;durP2;ratioP2;P2;SDS_P1;SDS_P2;PMS_P1;PMS_P2;Temp;Humidity;BMP_temperature;BMP_pressure;BME280_temperature;BME280_humidity;BME280_pressure;Samples;Min_cycle;Max_cycle;Signal;HPM_P1;HPM_P2
2021/09/27 00:01:41;;;;;;;14.00;7.93;;;;;;;18.95;100.00;97850.38;4931814;29;20043;-79
2021/09/27 00:04:08;;;;;;;14.00;7.45;;;;;;;19.13;100.00;97858.91;4928666;29;20311;-80
2021/09/27 00:06:35;;;;;;;12.15;7.40;;;;;;;19.26;100.00;97860.31;4900750;29;20048;-80
2021/09/27 00:09:02;;;;;;;10.10;7.13;;;;;;;19.27;100.00;97856.44;4901129;29;20042;-80
2021/09/27 00:11:30;;;;;;;14.05;6.82;;;;;;;19.30;100.00;97872.19;4901836;29;20360;-80
2021/09/27 00:14:00;;;;;;;13.63;7.60;;;;;;;19.43;100.00;97862.63;4943109;23;20501;-80
2021/09/27 00:16:27;;;;;;;16.50;7.07;;;;;;;19.34;100.00;97861.22;4919800;29;20059;-81
2021/09/27 00:18:54;;;;;;;11.43;7.15;;;;;;;19.41;100.00;97866.91;4904051;29;20137;-81
2021/09/27 00:21:26;;;;;;;10.95;7.25;;;;;;;19.24;100.00;97871.69;4905667;29;20044;-82
2021/09/27 00:23:54;;;;;;;13.82;7.97;;;;;;;19.33;100.00;97865.94;4919989;29;20142;-80
2021/09/27 00:26:22;;;;;;;9.50;7.00;;;;;;;19.37;100.00;97864.09;4905290;29;20103;-80
2021/09/27 00:28:48;;;;;;;10.77;7.47;;;;;;;19.36;100.00;97865.19;4920403;29;20052;-79
2021/09/27 00:31:16;;;;;;;13.13;7.38;;;;;;;19.30;100.00;97867.47;4904942;29;20424;-80
2021/09/27 00:33:44;;;;;;;11.27;7.15;;;;;;;19.26;100.00;97877.59;4904313;29;20047;-80
2021/09/27 00:36:11;;;;;;;12.20;7.57;;;;;;;19.22;100.00;97875.94;4938214;29;20424;-79
2021/09/27 00:38:38;;;;;;;13.02;7.53;;;;;;;19.08;100.00;97876.47;4921834;29;20048;-81
2021/09/27 00:41:13;;;;;;;11.65;8.30;;;;;;;19.00;100.00;97893.97;4938522;29;20051;-79
2021/09/27 00:43:41;;;;;;;13.55;8.15;;;;;;;19.06;100.00;97908.19;4919096;29;20086;-80
2021/09/27 00:46:15;;;;;;;11.98;7.78;;;;;;;18.95;100.00;97891.53;4921719;29;20654;-79
2021/09/27 00:48:43;;;;;;;12.27;7.47;;;;;;;18.67;100.00;97902.72;4940152;29;20048;-81
2021/09/27 00:51:14;;;;;;;12.25;8.00;;;;;;;18.63;100.00;97899.09;4922544;29;20047;-80
2021/09/27 00:53:54;;;;;;;10.60;7.97;;;;;;;18.63;100.00;97893.63;4921444;29;20054;-81
2021/09/27 00:56:29;;;;;;;12.95;8.43;;;;;;;18.65;100.00;97879.56;4921950;29;20047;-79
2021/09/27 00:58:58;;;;;;;12.98;8.25;;;;;;;18.59;100.00;97881.00;4918815;29;20048;-79
2021/09/27 01:01:26;;;;;;;13.07;8.38;;;;;;;18.57;100.00;97886.84;4936210;29;20094;-80
2021/09/27 01:03:54;;;;;;;17.70;8.45;;;;;;;18.52;100.00;97889.09;4931291;29;20051;-80
2021/09/27 01:06:31;;;;;;;13.75;8.90;;;;;;;18.55;100.00;97886.44;4918784;29;20054;-80
2021/09/27 01:09:13;;;;;;;14.68;9.13;;;;;;;18.41;100.00;97886.09;4918575;29;20067;-82
2021/09/27 01:12:01;;;;;;;13.00;8.25;;;;;;;18.33;100.00;97895.31;4918472;29;20047;-80
2021/09/27 01:15:07;;;;;;;17.67;8.63;;;;;;;18.33;100.00;97909.03;4918395;29;20058;-80
2021/09/27 01:17:52;;;;;;;12.05;8.50;;;;;;;18.31;100.00;97894.09;4934521;29;20053;-79
2021/09/27 01:20:32;;;;;;;14.55;9.18;;;;;;;18.40;100.00;97895.47;4902594;29;20051;-79
2021/09/27 01:23:18;;;;;;;12.45;8.48;;;;;;;18.23;100.00;97901.34;4902227;29;20043;-79
2021/09/27 01:25:50;;;;;;;15.20;8.70;;;;;;;18.18;100.00;97901.63;4918441;29;20358;-78
2021/09/27 01:28:20;;;;;;;16.33;9.05;;;;;;;18.10;100.00;97897.16;4918061;29;20043;-83
2021/09/27 01:30:52;;;;;;;19.05;8.65;;;;;;;18.11;100.00;97900.69;4901862;29;20500;-81
2021/09/27 01:33:41;;;;;;;15.68;8.43;;;;;;;18.07;100.00;97910.78;4915741;29;20468;-80
2021/09/27 01:36:23;;;;;;;14.23;9.20;;;;;;;18.19;100.00;97907.91;4917024;29;20428;-81
2021/09/27 01:39:01;;;;;;;20.13;9.25;;;;;;;18.15;100.00;97907.84;4916722;29;20496;-79
2021/09/27 01:41:51;;;;;;;13.27;8.70;;;;;;;18.14;100.00;97911.75;4932901;29;20055;-79
2021/09/27 01:44:36;;;;;;;14.35;9.02;;;;;;;18.24;100.00;97897.47;4933907;29;20110;-79
2021/09/27 01:47:17;;;;;;;17.73;9.17;;;;;;;18.32;100.00;97876.50;4934036;29;20373;-80
2021/09/27 01:49:49;;;;;;;19.17;9.13;;;;;;;18.09;100.00;97917.50;4917440;29;20288;-80
2021/09/27 01:52:33;;;;;;;14.65;9.60;;;;;;;17.93;100.00;97916.72;4901324;29;20110;-80
2021/09/27 01:55:38;;;;;;;20.05;10.70;;;;;;;17.73;100.00;97921.31;4935283;29;20440;-81
2021/09/27 01:58:21;;;;;;;21.60;10.60;;;;;;;17.74;100.00;97920.19;4905800;29;20039;-83
2021/09/27 02:00:52;;;;;;;24.88;10.77;;;;;;;17.69;100.00;97919.66;4936532;29;20428;-81
2021/09/27 02:03:27;;;;;;;18.05;11.13;;;;;;;17.66;100.00;97914.88;4935224;29;20048;-83
2021/09/27 02:06:20;;;;;;;20.98;12.15;;;;;;;17.65;100.00;97930.53;4918096;29;20099;-81
2021/09/27 02:09:17;;;;;;;19.13;11.20;;;;;;;17.52;100.00;97936.41;4901011;29;20227;-80
2021/09/27 02:11:47;;;;;;;;;;;;;;;17.54;100.00;97947.81;4934319;29;20056;-81
2021/09/27 02:14:13;;;;;;;26.10;12.10;;;;;;;17.63;100.00;97940.22;4933383;29;19927;-81
2021/09/27 02:17:02;;;;;;;26.10;13.45;;;;;;;17.68;100.00;97935.28;4917626;29;20043;-80
2021/09/27 02:19:51;;;;;;;24.58;12.75;;;;;;;17.70;100.00;97913.84;4918014;29;20124;-82
2021/09/27 02:22:53;;;;;;;25.90;13.32;;;;;;;17.58;100.00;97919.38;4917527;29;20063;-81
2021/09/27 02:25:31;;;;;;;26.15;13.18;;;;;;;17.53;100.00;97935.28;4914005;29;20429;-82
2021/09/27 02:28:00;;;;;;;24.73;13.95;;;;;;;17.57;100.00;97936.97;4934472;29;20055;-81
2021/09/27 02:30:38;;;;;;;25.17;13.63;;;;;;;17.60;100.00;97938.22;4916412;29;20043;-81
2021/09/27 02:33:26;;;;;;;31.90;13.88;;;;;;;17.60;100.00;97940.94;4916733;29;20428;-81
2021/09/27 02:36:03;;;;;;;25.30;14.55;;;;;;;17.55;100.00;97938.47;4916509;29;20116;-81
2021/09/27 02:38:55;;;;;;;24.17;13.60;;;;;;;17.69;100.00;97934.13;4917687;29;20573;-82
2021/09/27 02:41:44;;;;;;;27.70;14.60;;;;;;;17.78;100.00;97936.72;4916892;29;20056;-80
2021/09/27 02:44:11;;;;;;;24.30;13.70;;;;;;;17.77;100.00;97935.09;4916786;29;20043;-81
2021/09/27 02:46:46;;;;;;;26.05;14.45;;;;;;;17.67;100.00;97925.50;4901327;29;20195;-81
2021/09/27 02:49:14;;;;;;;25.45;14.60;;;;;;;17.79;100.00;97941.03;4916022;29;20052;-79
2021/09/27 02:51:46;;;;;;;26.00;14.70;;;;;;;17.70;100.00;97932.19;4909470;29;20042;-80
2021/09/27 02:54:20;;;;;;;23.58;13.98;;;;;;;17.66;100.00;97925.81;4913359;29;20044;-81
2021/09/27 02:57:14;;;;;;;24.52;14.52;;;;;;;17.66;100.00;97923.88;4915123;29;20119;-82
2021/09/27 02:59:59;;;;;;;28.02;14.70;;;;;;;17.61;100.00;97931.56;4896766;29;20127;-80
2021/09/27 03:02:38;;;;;;;28.23;14.83;;;;;;;17.65;100.00;97921.53;4914416;29;20036;-80
2021/09/27 03:05:27;;;;;;;26.60;15.10;;;;;;;17.67;100.00;97921.94;4897183;29;20060;-82
2021/09/27 03:08:03;;;;;;;29.95;14.93;;;;;;;17.68;100.00;97927.06;4914155;29;20044;-79
2021/09/27 03:10:36;;;;;;;30.02;15.00;;;;;;;17.70;100.00;97929.47;4899468;29;20051;-79
2021/09/27 03:13:21;;;;;;;30.38;15.68;;;;;;;17.71;100.00;97937.31;4900965;29;20080;-79
2021/09/27 03:16:00;;;;;;;29.17;15.55;;;;;;;17.69;100.00;97934.13;4917170;29;20124;-80
2021/09/27 03:18:50;;;;;;;33.80;15.90;;;;;;;17.65;100.00;97941.50;4902681;29;20052;-80
2021/09/27 03:21:51;;;;;;;30.73;16.25;;;;;;;17.63;100.00;97930.06;4902444;29;20477;-81
2021/09/27 03:24:45;;;;;;;38.00;16.92;;;;;;;17.56;100.00;97934.56;4902878;29;20535;-82
2021/09/27 03:27:28;;;;;;;36.30;17.35;;;;;;;17.56;100.00;97938.13;4902846;29;20424;-81
2021/09/27 03:30:16;;;;;;;37.33;18.35;;;;;;;17.47;100.00;97953.09;4936525;29;20043;-81
2021/09/27 03:33:07;;;;;;;39.50;18.08;;;;;;;17.59;100.00;97947.56;4920823;29;20474;-80
2021/09/27 03:35:43;;;;;;;40.50;20.20;;;;;;;17.66;100.00;97928.56;4930849;29;20047;-82
2021/09/27 03:38:33;;;;;;;38.72;18.90;;;;;;;17.62;100.00;97917.53;4925347;29;20091;-81
2021/09/27 03:41:16;;;;;;;35.08;17.77;;;;;;;17.65;100.00;97913.31;4920640;29;20048;-82
2021/09/27 03:43:58;;;;;;;34.90;17.05;;;;;;;17.51;100.00;97916.44;4919631;29;20054;-80
2021/09/27 03:46:55;;;;;;;32.92;17.67;;;;;;;17.47;100.00;97918.31;4920570;29;20062;-81
2021/09/27 03:49:39;;;;;;;38.00;17.83;;;;;;;17.35;100.00;97923.84;4923519;29;20052;-83
2021/09/27 03:52:13;;;;;;;36.90;18.75;;;;;;;17.36;100.00;97918.03;4947722;29;20047;-82
2021/09/27 03:54:50;;;;;;;43.80;19.90;;;;;;;17.40;100.00;97920.84;4949546;29;20047;-80
2021/09/27 03:57:32;;;;;;;45.38;21.17;;;;;;;17.38;100.00;97912.19;4937073;29;20070;-81
2021/09/27 04:00:04;;;;;;;44.78;19.98;;;;;;;17.33;100.00;97899.56;4939805;29;20051;-83
2021/09/27 04:02:42;;;;;;;41.22;19.23;;;;;;;17.35;100.00;97907.41;4940125;29;20444;-81
2021/09/27 04:05:33;;;;;;;40.13;19.67;;;;;;;17.45;100.00;97902.22;4934669;29;20043;-79
2021/09/27 04:08:38;;;;;;;43.95;20.30;;;;;;;17.48;100.00;97902.66;4920495;29;20040;-79
2021/09/27 04:11:33;;;;;;;45.13;20.00;;;;;;;17.44;100.00;97891.63;4900866;29;20303;-79
2021/09/27 04:14:14;;;;;;;54.60;22.70;;;;;;;17.42;100.00;97904.88;4900672;29;20048;-79
2021/09/27 04:16:40;;;;;;;48.95;21.30;;;;;;;17.46;100.00;97894.81;4902558;29;20067;-79
2021/09/27 04:19:36;;;;;;;56.63;22.90;;;;;;;17.27;100.00;97903.72;4886400;29;20058;-80
2021/09/27 04:22:14;;;;;;;48.17;21.73;;;;;;;17.29;100.00;97914.31;4918740;29;20044;-82
2021/09/27 04:24:55;;;;;;;53.38;22.92;;;;;;;17.18;100.00;97911.31;4919090;29;20044;-79
2021/09/27 04:27:29;;;;;;;65.05;25.15;;;;;;;17.15;100.00;97911.19;4901346;29;20086;-81
2021/09/27 04:30:20;;;;;;;57.33;24.75;;;;;;;17.30;100.00;97910.41;4918249;29;20055;-81
2021/09/27 04:32:59;;;;;;;63.40;26.30;;;;;;;17.31;100.00;97903.81;4918394;29;20045;-82
2021/09/27 04:35:50;;;;;;;59.92;25.83;;;;;;;17.40;100.00;97902.47;4928353;29;20077;-82
2021/09/27 04:38:18;;;;;;;60.83;25.65;;;;;;;17.35;100.00;97907.41;4920825;29;20040;-80
2021/09/27 04:41:09;;;;;;;65.38;26.45;;;;;;;17.21;100.00;97907.88;4926722;29;20044;-80
2021/09/27 04:43:39;;;;;;;62.13;25.45;;;;;;;17.28;100.00;97905.31;4927543;29;20040;-82
2021/09/27 04:46:44;;;;;;;62.60;26.27;;;;;;;17.27;100.00;97911.13;4929039;29;20054;-81
2021/09/27 04:49:22;;;;;;;63.92;25.52;;;;;;;17.27;100.00;97917.38;4929012;29;20051;-82
2021/09/27 04:52:10;;;;;;;60.80;25.63;;;;;;;17.30;100.00;97908.47;4938419;29;20323;-81
2021/09/27 04:54:46;;;;;;;72.00;27.23;;;;;;;17.29;100.00;97912.34;4956669;29;20039;-82
2021/09/27 04:57:46;;;;;;;68.65;25.40;;;;;;;17.25;100.00;97911.47;4956152;29;20614;-81
2021/09/27 05:00:31;;;;;;;73.30;26.35;;;;;;;17.35;100.00;97905.47;4940790;29;20066;-80
2021/09/27 05:03:23;;;;;;;77.30;29.13;;;;;;;17.24;100.00;97907.13;4941376;29;20051;-79
2021/09/27 05:06:20;;;;;;;76.05;29.33;;;;;;;17.33;100.00;97899.56;4944116;29;20393;-80
2021/09/27 05:09:03;;;;;;;73.07;28.65;;;;;;;17.39;100.00;97903.63;4922678;29;20374;-80
2021/09/27 05:11:54;;;;;;;66.90;27.77;;;;;;;17.39;100.00;97908.31;4909368;29;20055;-80
2021/09/27 05:14:33;;;;;;;64.75;27.52;;;;;;;17.43;100.00;97898.25;4907273;29;20040;-80
2021/09/27 05:17:20;;;;;;;67.10;28.25;;;;;;;17.35;100.00;97900.00;4923300;29;20096;-80
2021/09/27 05:20:02;;;;;;;71.55;29.05;;;;;;;17.29;100.00;97892.44;4901991;29;20192;-79
2021/09/27 05:22:51;;;;;;;81.07;30.17;;;;;;;17.25;100.00;97884.13;4908941;29;20043;-79
2021/09/27 05:25:51;;;;;;;73.85;29.10;;;;;;;17.30;100.00;97891.25;4915848;29;20073;-79
2021/09/27 05:28:57;;;;;;;72.47;28.55;;;;;;;17.27;100.00;97889.22;4915252;29;20038;-80
2021/09/27 05:32:21;;;;;;;67.30;27.00;;;;;;;17.33;100.00;97891.38;4927290;29;20061;-78
2021/09/27 05:35:24;;;;;;;58.95;26.52;;;;;;;17.37;100.00;97886.75;4855619;29;20053;-80
2021/09/27 05:38:18;;;;;;;68.15;27.75;;;;;;;17.37;100.00;97883.22;4912183;29;20048;-80
2021/09/27 05:41:06;;;;;;;57.97;26.08;;;;;;;17.42;100.00;97888.47;4893575;29;20059;-80
2021/09/27 05:43:58;;;;;;;56.97;25.90;;;;;;;17.34;100.00;97900.38;4919994;29;20061;-80
2021/09/27 05:46:58;;;;;;;61.78;27.23;;;;;;;17.36;100.00;97890.66;4930877;29;20047;-79
2021/09/27 05:49:50;;;;;;;58.65;26.13;;;;;;;17.34;100.00;97903.88;4932651;29;20306;-80
2021/09/27 05:52:30;;;;;;;56.28;25.88;;;;;;;17.36;100.00;97892.59;4910688;29;20052;-79
2021/09/27 05:55:14;;;;;;;60.45;25.58;;;;;;;17.25;100.00;97900.53;4898139;29;20063;-80
2021/09/27 05:57:44;;;;;;;56.58;26.13;;;;;;;17.33;100.00;97901.50;4915603;29;20043;-80
2021/09/27 06:00:33;;;;;;;56.83;26.08;;;;;;;17.39;100.00;97903.63;4909187;29;20046;-80
2021/09/27 06:03:11;;;;;;;61.00;28.52;;;;;;;17.64;100.00;97892.53;4942545;29;20054;-80
2021/09/27 06:05:48;;;;;;;68.70;29.85;;;;;;;17.63;100.00;97886.25;4932721;29;20058;-80
2021/09/27 06:08:50;;;;;;;56.40;27.50;;;;;;;17.67;100.00;97894.56;4899338;29;20054;-80
2021/09/27 06:11:32;;;;;;;65.18;28.65;;;;;;;17.72;100.00;97883.34;4929008;29;20058;-81
2021/09/27 06:14:00;;;;;;;57.88;28.58;;;;;;;17.73;100.00;97879.47;4918769;29;20405;-81
2021/09/27 06:17:02;;;;;;;52.50;25.40;;;;;;;17.59;100.00;97888.13;4946650;23;20040;-79
2021/09/27 06:29:05;;;;;;;53.92;24.52;;;;;;;17.76;100.00;97895.16;4894987;29;20049;-79
2021/09/27 06:31:41;;;;;;;49.53;23.25;;;;;;;17.80;100.00;97893.31;4895164;29;20086;-77
2021/09/27 06:34:31;;;;;;;47.67;22.77;;;;;;;17.86;100.00;97895.41;4897494;29;20053;-78
2021/09/27 06:37:01;;;;;;;46.97;22.80;;;;;;;17.92;100.00;97888.53;4893140;29;20044;-79
2021/09/27 06:41:57;;;;;;;47.13;22.90;;;;;;;17.80;100.00;97888.66;4908029;29;20107;-81
2021/09/27 06:44:24;;;;;;;39.45;21.95;;;;;;;17.88;100.00;97897.81;4913237;29;20071;-81
2021/09/27 06:46:53;;;;;;;43.70;22.48;;;;;;;18.12;100.00;97896.81;4914413;29;20465;-79
2021/09/27 06:49:21;;;;;;;43.65;22.48;;;;;;;18.18;100.00;97898.09;4899498;29;20100;-80
2021/09/27 06:51:48;;;;;;;56.83;29.52;;;;;;;18.00;100.00;97897.69;4900153;29;20040;-80
2021/09/27 06:54:17;;;;;;;36.38;20.67;;;;;;;17.97;100.00;97896.47;4885548;29;20139;-80
2021/09/27 06:56:46;;;;;;;34.17;20.48;;;;;;;18.10;100.00;97894.41;4882448;29;20058;-81
2021/09/27 06:59:15;;;;;;;35.70;19.80;;;;;;;18.04;100.00;97906.78;4900041;29;20431;-82
2021/09/27 07:01:42;;;;;;;33.75;19.42;;;;;;;18.23;100.00;97898.63;4915806;29;20056;-82
2021/09/27 07:04:09;;;;;;;28.95;17.38;;;;;;;18.20;100.00;97899.31;4900880;29;20135;-80
2021/09/27 07:06:36;;;;;;;33.13;17.45;;;;;;;18.33;100.00;97900.00;4916243;29;20043;-80
2021/09/27 07:09:07;;;;;;;30.98;19.17;;;;;;;18.32;100.00;97901.97;4901579;29;20096;-79
2021/09/27 07:11:34;;;;;;;32.13;19.55;;;;;;;18.36;100.00;97896.53;4916607;29;20050;-82
2021/09/27 07:14:01;;;;;;;30.30;18.13;;;;;;;18.40;100.00;97898.19;4901226;29;20056;-81
2021/09/27 07:16:27;;;;;;;33.20;17.30;;;;;;;18.38;100.00;97896.97;4917783;29;20115;-79
2021/09/27 07:19:09;;;;;;;30.33;18.35;;;;;;;18.52;100.00;97900.06;4899063;29;20067;-80
2021/09/27 07:21:37;;;;;;;31.63;17.52;;;;;;;18.71;100.00;97891.03;4912476;29;20056;-81
2021/09/27 07:24:05;;;;;;;27.17;16.40;;;;;;;18.82;100.00;97894.78;4914110;29;20125;-81
2021/09/27 07:26:33;;;;;;;27.25;15.93;;;;;;;18.89;100.00;97897.69;4895675;29;20059;-80
2021/09/27 07:29:02;;;;;;;20.85;14.48;;;;;;;18.85;100.00;97908.56;4897202;29;20040;-81
2021/09/27 07:31:31;;;;;;;22.35;15.02;;;;;;;18.98;100.00;97898.22;4897562;29;20070;-79
2021/09/27 07:34:00;;;;;;;21.85;14.40;;;;;;;18.85;100.00;97894.84;4881844;29;20091;-80
2021/09/27 07:36:27;;;;;;;21.80;14.07;;;;;;;18.96;100.00;97898.59;4914173;29;20128;-82
2021/09/27 07:38:55;;;;;;;23.42;14.13;;;;;;;19.11;100.00;97896.91;4912782;29;20048;-80
2021/09/27 07:41:22;;;;;;;22.38;14.50;;;;;;;19.06;100.00;97891.72;4911598;29;20111;-81
2021/09/27 07:43:49;;;;;;;21.55;13.90;;;;;;;19.21;100.00;97904.56;4911942;29;20059;-82
2021/09/27 07:46:18;;;;;;;21.35;13.20;;;;;;;19.43;100.00;97889.28;4913656;29;20066;-81
2021/09/27 07:48:46;;;;;;;19.02;13.57;;;;;;;19.56;100.00;97902.44;4897606;29;20095;-79
2021/09/27 07:51:14;;;;;;;18.20;12.85;;;;;;;19.48;100.00;97888.97;4899758;29;20131;-81
2021/09/27 07:53:40;;;;;;;21.02;13.43;;;;;;;19.41;100.00;97894.38;4913362;29;20516;-82
2021/09/27 07:56:07;;;;;;;21.65;14.07;;;;;;;19.73;100.00;97890.19;4899618;29;20488;-81
2021/09/27 07:58:33;;;;;;;20.80;13.85;;;;;;;20.01;100.00;97895.31;4900215;29;20072;-81
2021/09/27 08:01:01;;;;;;;18.13;12.63;;;;;;;19.99;100.00;97892.16;4902229;29;20099;-82
2021/09/27 08:03:28;;;;;;;20.50;13.00;;;;;;;20.12;100.00;97890.78;4903908;29;20547;-81
2021/09/27 08:05:56;;;;;;;24.65;12.88;;;;;;;20.02;100.00;97891.41;4900477;29;20420;-81
2021/09/27 08:08:22;;;;;;;22.27;12.88;;;;;;;20.34;100.00;97890.72;4898717;29;20044;-83
2021/09/27 08:10:51;;;;;;;19.85;13.18;;;;;;;20.49;100.00;97898.00;4899750;29;20048;-81
2021/09/27 08:13:18;;;;;;;21.35;12.77;;;;;;;20.67;100.00;97898.25;4899359;29;20052;-81
2021/09/27 08:15:50;;;;;;;19.92;13.15;;;;;;;20.55;100.00;97897.66;4916735;29;20044;-80
2021/09/27 08:18:17;;;;;;;17.95;11.48;;;;;;;20.97;100.00;97899.00;4915567;29;20492;-79
2021/09/27 08:20:49;;;;;;;16.48;11.25;;;;;;;21.37;100.00;97898.25;4899257;29;20092;-80
2021/09/27 08:23:16;;;;;;;17.27;12.00;;;;;;;21.27;100.00;97893.41;4915468;29;20047;-80
2021/09/27 08:25:43;;;;;;;15.82;11.85;;;;;;;22.06;100.00;97888.22;4898790;29;20044;-79
2021/09/27 08:28:14;;;;;;;16.30;11.40;;;;;;;21.84;100.00;97886.44;4915719;29;20048;-82
2021/09/27 08:30:49;;;;;;;15.90;10.10;;;;;;;21.80;100.00;97880.13;4898795;29;20092;-81
2021/09/27 08:33:18;;;;;;;14.85;10.02;;;;;;;21.92;100.00;97885.34;4882456;29;20052;-79
2021/09/27 08:35:47;;;;;;;16.55;10.45;;;;;;;22.21;100.00;97889.91;4898737;29;20508;-79
2021/09/27 08:38:15;;;;;;;18.02;10.38;;;;;;;22.19;100.00;97888.69;4883545;29;20048;-79
2021/09/27 08:40:57;;;;;;;13.50;9.15;;;;;;;22.51;100.00;97892.41;4913801;29;20051;-80
2021/09/27 08:43:39;;;;;;;15.13;9.45;;;;;;;22.67;100.00;97892.91;4915270;29;20040;-80
2021/09/27 08:46:52;;;;;;;16.80;8.45;;;;;;;22.47;100.00;97890.81;4916280;29;20044;-79
2021/09/27 08:49:31;;;;;;;11.70;7.65;;;;;;;22.44;100.00;97880.56;4914679;29;20073;-81
2021/09/27 08:51:58;;;;;;;13.50;8.40;;;;;;;22.40;100.00;97890.78;4897826;29;20063;-79
2021/09/27 08:54:29;;;;;;;36.33;12.98;;;;;;;22.11;100.00;97892.59;4914034;29;20099;-79
2021/09/27 08:57:09;;;;;;;13.68;8.52;;;;;;;22.13;100.00;97893.78;4898749;29;20076;-78
2021/09/27 09:00:21;;;;;;;11.85;8.13;;;;;;;22.38;100.00;97893.91;4899149;29;20052;-78
2021/09/27 09:03:18;;;;;;;12.30;7.57;;;;;;;22.30;100.00;97895.06;4856657;29;20048;-80
2021/09/27 09:05:52;;;;;;;12.13;7.70;;;;;;;22.64;100.00;97890.13;4895644;29;20048;-79
2021/09/27 09:08:41;;;;;;;11.27;8.43;;;;;;;22.53;100.00;97887.28;4897066;29;20045;-79
2021/09/27 09:11:36;;;;;;;19.08;9.10;;;;;;;22.52;100.00;97902.28;4880236;29;20063;-79
2021/09/27 09:14:10;;;;;;;10.40;7.97;;;;;;;22.64;100.00;97896.44;4910804;29;20483;-79
2021/09/27 09:16:40;;;;;;;11.65;8.15;;;;;;;22.82;100.00;97896.53;4879689;29;20060;-80
2021/09/27 09:19:13;;;;;;;9.73;8.15;;;;;;;22.67;100.00;97898.44;4881460;29;20045;-80
2021/09/27 09:21:48;;;;;;;11.43;8.10;;;;;;;22.18;100.00;97885.16;4915375;29;20051;-79
2021/09/27 09:24:19;;;;;;;12.52;8.25;;;;;;;22.41;100.00;97887.63;4897914;29;20056;-79
2021/09/27 09:26:49;;;;;;;11.60;8.38;;;;;;;21.92;100.00;97890.88;4898002;29;20066;-79
2021/09/27 09:29:23;;;;;;;13.18;9.18;;;;;;;21.75;100.00;97886.00;4883070;29;20056;-79
2021/09/27 09:31:54;;;;;;;12.15;9.00;;;;;;;21.83;100.00;97893.16;4915460;29;20055;-80
2021/09/27 09:34:21;;;;;;;12.30;8.55;;;;;;;22.02;100.00;97892.13;4914995;29;20062;-80
2021/09/27 09:36:50;;;;;;;12.30;9.02;;;;;;;21.56;100.00;97897.25;4913757;29;20413;-78
2021/09/27 09:39:27;;;;;;;12.73;9.15;;;;;;;21.26;100.00;97904.81;4899368;29;20040;-80
2021/09/27 09:41:56;;;;;;;15.18;9.45;;;;;;;21.08;100.00;97907.41;4915113;29;20117;-81
2021/09/27 09:44:35;;;;;;;12.27;9.02;;;;;;;21.24;100.00;97901.66;4881785;29;20044;-81
2021/09/27 09:47:12;;;;;;;11.48;9.15;;;;;;;20.88;100.00;97900.47;4889936;29;20436;-80
2021/09/27 09:49:59;;;;;;;12.25;9.70;;;;;;;20.93;100.00;97908.38;4890948;29;20305;-81
2021/09/27 09:52:33;;;;;;;14.40;9.93;;;;;;;20.81;100.00;97901.16;4912523;29;20062;-81
2021/09/27 09:55:02;;;;;;;10.32;8.63;;;;;;;20.52;100.00;97906.69;4902398;29;20477;-81
2021/09/27 09:57:37;;;;;;;11.77;9.20;;;;;;;20.36;100.00;97906.88;4917727;29;20504;-81
2021/09/27 10:00:08;;;;;;;14.43;8.85;;;;;;;20.29;100.00;97906.75;4898702;29;20052;-79
2021/09/27 10:02:41;;;;;;;;;;;;;;;20.52;100.00;97903.94;4919362;29;20052;-80
2021/09/27 10:05:27;;;;;;;13.95;9.85;;;;;;;20.45;100.00;97910.13;4922222;29;19927;-80
2021/09/27 10:07:56;;;;;;;11.48;8.95;;;;;;;20.41;100.00;97912.03;4930526;29;20154;-80
2021/09/27 10:10:31;;;;;;;14.60;9.52;;;;;;;20.40;100.00;97916.75;4927031;29;20035;-81
2021/09/27 10:13:01;;;;;;;13.82;9.85;;;;;;;20.62;100.00;97906.81;4923603;29;20066;-80
2021/09/27 10:15:33;;;;;;;11.70;9.13;;;;;;;20.69;100.00;97909.66;4935902;29;20051;-79
2021/09/27 10:18:04;;;;;;;12.20;9.35;;;;;;;20.66;100.00;97909.59;4932450;29;20039;-80
2021/09/27 10:20:40;;;;;;;10.77;9.32;;;;;;;20.68;100.00;97904.50;4899245;29;20154;-80
2021/09/27 10:23:12;;;;;;;11.40;9.45;;;;;;;20.41;100.00;97898.28;4939817;29;20054;-82
2021/09/27 10:25:45;;;;;;;15.02;9.95;;;;;;;20.73;100.00;97898.69;4935213;29;20058;-81
2021/09/27 10:28:21;;;;;;;14.95;9.65;;;;;;;20.83;100.00;97900.78;4930075;29;20045;-79
2021/09/27 10:30:51;;;;;;;13.63;10.18;;;;;;;20.81;100.00;97909.41;4915742;29;20447;-79
2021/09/27 10:33:20;;;;;;;18.10;12.57;;;;;;;21.01;100.00;97904.50;4897670;29;20076;-80
2021/09/27 10:36:03;;;;;;;18.90;11.02;;;;;;;20.92;100.00;97909.53;4930680;29;20550;-79
2021/09/27 10:38:40;;;;;;;11.95;10.25;;;;;;;20.69;100.00;97901.41;4897113;29;20047;-79
2021/09/27 10:41:35;;;;;;;18.05;10.63;;;;;;;20.47;100.00;97899.53;4908691;29;20058;-80
2021/09/27 10:44:14;;;;;;;15.60;10.93;;;;;;;20.71;100.00;97910.06;4893016;29;20499;-80
2021/09/27 10:46:44;;;;;;;14.43;10.75;;;;;;;20.71;100.00;97895.53;4912435;29;20043;-81
2021/09/27 10:49:16;;;;;;;13.98;10.98;;;;;;;20.72;100.00;97900.66;4929775;29;20604;-80
2021/09/27 10:51:50;;;;;;;14.60;11.40;;;;;;;20.66;100.00;97909.59;4893310;29;20052;-80
2021/09/27 10:54:42;;;;;;;15.18;11.60;;;;;;;20.74;100.00;97895.56;4910782;29;20120;-81
2021/09/27 10:57:15;;;;;;;17.13;11.77;;;;;;;20.56;100.00;97905.56;4905032;29;20499;-79
2021/09/27 10:59:47;;;;;;;14.40;10.50;;;;;;;20.70;100.00;97900.22;4912080;29;20122;-80
2021/09/27 11:02:34;;;;;;;19.90;11.95;;;;;;;20.68;100.00;97902.56;4905222;29;20574;-80
2021/09/27 11:05:15;;;;;;;14.95;11.88;;;;;;;20.58;100.00;97900.47;4911804;29;20055;-81
2021/09/27 11:07:49;;;;;;;18.08;12.45;;;;;;;20.68;100.00;97893.50;4912037;29;20058;-81
2021/09/27 11:10:38;;;;;;;15.63;11.90;;;;;;;20.61;100.00;97893.44;4912494;29;20451;-80
2021/09/27 11:13:07;;;;;;;20.35;12.68;;;;;;;20.61;100.00;97896.97;4905292;29;20047;-80
2021/09/27 11:15:40;;;;;;;17.23;12.40;;;;;;;20.64;100.00;97893.50;4913612;29;20114;-80
2021/09/27 11:18:14;;;;;;;19.23;13.07;;;;;;;20.55;100.00;97890.22;4919609;29;20067;-81
2021/09/27 11:20:49;;;;;;;17.63;12.57;;;;;;;20.23;100.00;97897.22;4913026;29;20083;-80
2021/09/27 11:23:22;;;;;;;19.65;13.35;;;;;;;20.40;100.00;97888.44;4898039;29;20050;-82
2021/09/27 11:26:19;;;;;;;19.63;13.55;;;;;;;20.35;100.00;97894.28;4902071;29;20048;-81
2021/09/27 11:28:53;;;;;;;21.48;12.98;;;;;;;20.24;100.00;97896.88;4933338;29;20484;-82
2021/09/27 11:31:32;;;;;;;17.63;13.27;;;;;;;20.39;100.00;97892.34;4914517;29;20048;-81
2021/09/27 11:34:08;;;;;;;23.60;14.25;;;;;;;20.48;100.00;97901.13;4916758;29;20068;-80
2021/09/27 11:36:52;;;;;;;17.65;13.65;;;;;;;20.50;100.00;97896.03;4900883;29;20100;-81
2021/09/27 11:39:39;;;;;;;17.38;13.63;;;;;;;20.48;100.00;97898.38;4885599;29;20052;-81
2021/09/27 11:42:12;;;;;;;22.42;13.18;;;;;;;20.40;100.00;97891.19;4932422;29;20578;-82
2021/09/27 11:44:58;;;;;;;17.85;13.13;;;;;;;20.59;100.00;97902.06;4937630;29;20412;-81
2021/09/27 11:47:55;;;;;;;19.52;14.52;;;;;;;20.54;100.00;97898.84;4937145;29;20047;-82
2021/09/27 11:50:27;;;;;;;19.95;13.43;;;;;;;20.31;100.00;97896.97;4920970;29;20055;-82
2021/09/27 11:53:01;;;;;;;24.75;14.13;;;;;;;20.52;100.00;97892.94;4920992;29;20047;-81
2021/09/27 11:55:38;;;;;;;18.75;13.88;;;;;;;20.51;100.00;97892.13;4938411;29;20054;-81
2021/09/27 11:58:47;;;;;;;19.20;13.55;;;;;;;20.73;100.00;97880.22;4919826;29;20399;-81
2021/09/27 12:01:37;;;;;;;18.60;14.00;;;;;;;20.85;100.00;97885.47;4915923;29;20405;-81
2021/09/27 12:04:23;;;;;;;21.00;14.00;;;;;;;20.94;100.00;97885.97;4919374;29;20411;-81
2021/09/27 12:06:56;;;;;;;19.20;13.55;;;;;;;20.94;100.00;97890.69;4916229;29;20056;-81
2021/09/27 12:09:38;;;;;;;18.77;13.85;;;;;;;20.78;100.00;97888.13;4900694;29;20075;-80
2021/09/27 12:12:07;;;;;;;19.40;13.63;;;;;;;20.92;100.00;97891.06;4922542;29;20048;-81
2021/09/27 12:14:42;;;;;;;19.23;14.23;;;;;;;20.77;100.00;97877.53;4919031;29;20530;-80